createdAt,value
2019-01-30T00:00:53.176Z,12.80
2019-01-30T00:03:31.335Z,12.80
2019-01-30T00:06:11.447Z,12.70
2019-01-30T00:08:49.221Z,12.70
2019-01-30T00:11:26.249Z,12.60
2019-01-30T00:14:04.151Z,12.70
2019-01-30T00:16:42.460Z,12.60
2019-01-30T00:19:20.910Z,12.70
2019-01-30T00:22:01.241Z,12.70
2019-01-30T00:24:39.203Z,12.80
2019-01-30T00:27:17.178Z,12.70
2019-01-30T00:30:03.815Z,12.60
2019-01-30T00:32:35.000Z,12.60
2019-01-30T00:35:16.011Z,12.60
2019-01-30T00:37:53.391Z,12.60
2019-01-30T00:40:31.011Z,12.70
2019-01-30T00:43:08.652Z,12.70
2019-01-30T00:45:46.840Z,12.70
2019-01-30T00:48:25.261Z,12.70
2019-01-30T00:51:02.942Z,12.70
2019-01-30T00:53:42.300Z,12.60
2019-01-30T00:56:20.160Z,12.60
2019-01-30T00:58:58.802Z,12.60
2019-01-30T01:01:38.577Z,12.60
2019-01-30T01:04:16.303Z,12.60
2019-01-30T01:06:54.402Z,12.60
2019-01-30T01:09:36.562Z,12.60
2019-01-30T01:12:20.641Z,12.80
2019-01-30T01:14:58.297Z,13.00
2019-01-30T01:17:37.507Z,12.90
2019-01-30T01:20:20.327Z,13.10
2019-01-30T01:23:03.200Z,13.00
2019-01-30T01:25:42.027Z,12.90
2019-01-30T01:28:21.658Z,12.80
2019-01-30T01:31:03.886Z,12.90
2019-01-30T01:33:42.082Z,12.80
2019-01-30T01:36:21.042Z,12.90
2019-01-30T01:38:59.561Z,13.00
2019-01-30T01:41:39.949Z,12.90
2019-01-30T01:44:21.675Z,12.80
2019-01-30T01:47:00.727Z,12.90
2019-01-30T01:49:43.877Z,13.00
2019-01-30T01:52:21.827Z,13.00
2019-01-30T01:54:59.478Z,13.00
2019-01-30T01:57:44.209Z,12.90
2019-01-30T02:00:35.578Z,12.80
2019-01-30T02:03:13.744Z,12.90
2019-01-30T02:05:54.059Z,12.80
2019-01-30T02:08:32.094Z,12.80
2019-01-30T02:11:11.753Z,12.70
2019-01-30T02:13:53.371Z,12.80
2019-01-30T02:16:33.205Z,12.80
2019-01-30T02:19:20.167Z,12.80
2019-01-30T02:22:01.689Z,12.90
2019-01-30T02:24:43.026Z,12.90
2019-01-30T02:27:24.994Z,12.90
2019-01-30T02:30:23.421Z,12.80
2019-01-30T02:33:05.313Z,12.90
2019-01-30T02:35:45.439Z,13.10
2019-01-30T02:38:24.894Z,12.90
2019-01-30T02:41:13.049Z,13.10
2019-01-30T02:43:52.864Z,13.20
2019-01-30T02:46:34.936Z,13.30
2019-01-30T02:49:15.423Z,13.30
2019-01-30T02:51:53.661Z,13.20
2019-01-30T02:54:31.864Z,13.10
2019-01-30T02:57:10.074Z,13.00
2019-01-30T02:59:50.575Z,12.90
2019-01-30T03:02:28.856Z,13.00
2019-01-30T03:05:07.699Z,12.90
2019-01-30T03:07:46.705Z,12.90
2019-01-30T03:10:33.372Z,12.90
2019-01-30T03:13:11.753Z,12.90
2019-01-30T03:15:52.149Z,12.90
2019-01-30T03:18:30.807Z,13.00
2019-01-30T03:21:11.905Z,13.00
2019-01-30T03:23:53.112Z,13.00
2019-01-30T03:26:30.172Z,12.90
2019-01-30T03:29:08.393Z,12.90
2019-01-30T03:31:46.533Z,12.90
2019-01-30T03:34:24.240Z,12.90
2019-01-30T03:37:03.092Z,12.90
2019-01-30T03:39:44.059Z,12.90
2019-01-30T03:42:22.684Z,12.90
2019-01-30T03:45:03.039Z,12.90
2019-01-30T03:47:41.143Z,12.80
2019-01-30T03:50:19.067Z,12.80
2019-01-30T03:52:59.579Z,12.80
2019-01-30T03:55:38.439Z,12.80
2019-01-30T03:58:26.616Z,12.70
2019-01-30T04:01:04.580Z,12.80
2019-01-30T04:03:41.972Z,12.90
2019-01-30T04:06:24.635Z,12.90
2019-01-30T04:09:03.739Z,13.00
2019-01-30T04:11:43.479Z,13.00
2019-01-30T04:14:22.225Z,13.00
2019-01-30T04:17:00.169Z,13.00
2019-01-30T04:19:40.309Z,13.00
2019-01-30T04:22:23.328Z,13.10
2019-01-30T04:25:06.548Z,12.90
2019-01-30T04:27:45.580Z,12.90
2019-01-30T04:30:29.413Z,13.00
2019-01-30T04:33:07.908Z,13.00
2019-01-30T04:36:03.230Z,13.10
2019-01-30T04:38:42.595Z,13.10
2019-01-30T04:41:25.708Z,13.00
2019-01-30T04:44:05.097Z,13.00
2019-01-30T04:46:43.105Z,13.00
2019-01-30T04:49:38.765Z,13.00
2019-01-30T04:52:19.432Z,13.00
2019-01-30T04:54:59.905Z,13.10
2019-01-30T04:57:39.108Z,13.10
2019-01-30T05:00:21.886Z,13.10
2019-01-30T05:03:02.054Z,13.20
2019-01-30T05:05:45.721Z,13.10
2019-01-30T05:08:27.565Z,13.10
2019-01-30T05:11:21.556Z,13.10
2019-01-30T05:14:15.276Z,13.10
2019-01-30T05:16:59.931Z,13.10
2019-01-30T05:19:38.660Z,13.00
2019-01-30T05:22:20.052Z,13.00
2019-01-30T05:24:59.230Z,13.00
2019-01-30T05:27:48.167Z,13.00
2019-01-30T05:30:35.762Z,13.00
2019-01-30T05:33:16.090Z,13.00
2019-01-30T05:35:56.936Z,13.00
2019-01-30T05:38:42.810Z,12.90
2019-01-30T05:41:23.832Z,12.90
2019-01-30T05:44:01.837Z,13.00
2019-01-30T05:46:44.365Z,13.00
2019-01-30T05:49:25.502Z,13.10
2019-01-30T05:52:13.248Z,13.00
2019-01-30T05:54:52.691Z,13.00
2019-01-30T05:57:35.531Z,12.90
2019-01-30T06:00:20.768Z,12.80
2019-01-30T06:03:00.953Z,12.80
2019-01-30T06:05:52.015Z,12.80
2019-01-30T06:08:54.125Z,12.70
2019-01-30T06:11:32.964Z,12.70
2019-01-30T06:14:11.619Z,12.70
2019-01-30T06:16:56.281Z,12.70
2019-01-30T06:19:38.691Z,12.80
2019-01-30T06:22:21.973Z,12.80
2019-01-30T06:25:10.099Z,12.70
2019-01-30T06:27:53.385Z,12.70
2019-01-30T06:30:36.800Z,12.60
2019-01-30T06:33:24.455Z,12.70
2019-01-30T06:36:12.223Z,12.60
2019-01-30T06:38:52.364Z,12.60
2019-01-30T06:41:41.137Z,12.60
2019-01-30T06:44:22.659Z,12.70
2019-01-30T06:47:03.744Z,12.70
2019-01-30T06:49:58.347Z,12.70
2019-01-30T06:52:57.042Z,12.70
2019-01-30T06:55:44.779Z,12.70
2019-01-30T06:58:26.144Z,12.70
2019-01-30T07:01:08.126Z,12.70
2019-01-30T07:03:49.402Z,12.70
2019-01-30T07:06:35.227Z,12.70
2019-01-30T07:09:21.505Z,12.70
2019-01-30T07:12:00.676Z,12.80
2019-01-30T07:14:41.371Z,12.80
2019-01-30T07:17:21.263Z,12.80
2019-01-30T07:20:02.278Z,12.90
2019-01-30T07:22:53.835Z,12.90
2019-01-30T07:25:36.726Z,12.80
2019-01-30T07:28:17.666Z,12.80
2019-01-30T07:30:59.355Z,12.70
2019-01-30T07:33:40.477Z,12.80
2019-01-30T07:36:19.721Z,12.80
2019-01-30T07:39:00.438Z,12.70
2019-01-30T07:41:46.095Z,12.90
2019-01-30T07:44:28.624Z,12.80
2019-01-30T07:47:09.252Z,12.90
2019-01-30T07:49:51.687Z,12.90
2019-01-30T07:52:32.783Z,12.70
2019-01-30T07:55:18.975Z,12.70
2019-01-30T07:58:00.797Z,12.60
2019-01-30T08:00:56.613Z,12.60
2019-01-30T08:03:38.989Z,12.50
2019-01-30T08:06:19.780Z,12.60
2019-01-30T08:09:04.507Z,12.50
2019-01-30T08:11:52.406Z,12.60
2019-01-30T08:14:32.246Z,12.50
2019-01-30T08:17:13.020Z,12.50
2019-01-30T08:20:04.729Z,12.50
2019-01-30T08:22:54.376Z,12.50
2019-01-30T08:25:35.342Z,12.50
2019-01-30T08:28:15.972Z,12.70
2019-01-30T08:30:59.239Z,12.60
2019-01-30T08:33:44.170Z,12.60
2019-01-30T08:36:26.050Z,12.60
2019-01-30T08:39:18.529Z,12.70
2019-01-30T08:42:01.706Z,12.70
2019-01-30T08:44:54.534Z,12.80
2019-01-30T08:47:43.036Z,12.80
2019-01-30T08:50:26.623Z,12.70
2019-01-30T08:53:10.022Z,12.60
2019-01-30T08:55:50.045Z,12.60
2019-01-30T08:58:33.809Z,12.60
2019-01-30T09:01:15.919Z,12.60
2019-01-30T09:04:06.156Z,12.50
2019-01-30T09:06:44.543Z,12.50
2019-01-30T09:09:23.746Z,12.60
2019-01-30T09:12:10.961Z,12.70
2019-01-30T09:14:57.206Z,12.90
2019-01-30T09:17:36.920Z,12.90
2019-01-30T09:20:22.404Z,12.90
2019-01-30T09:23:01.293Z,12.90
2019-01-30T09:25:40.305Z,12.90
2019-01-30T09:28:25.059Z,12.80
2019-01-30T09:31:07.839Z,12.80
2019-01-30T09:33:47.053Z,12.80
2019-01-30T09:36:27.980Z,12.70
2019-01-30T09:39:10.313Z,12.90
2019-01-30T09:41:52.361Z,13.00
2019-01-30T09:44:35.018Z,12.80
2019-01-30T09:47:18.659Z,12.70
2019-01-30T09:50:00.872Z,12.60
2019-01-30T09:52:42.202Z,12.60
2019-01-30T09:55:23.878Z,12.70
2019-01-30T09:58:02.458Z,12.60
2019-01-30T10:00:42.842Z,12.70
2019-01-30T10:03:21.097Z,12.70
2019-01-30T10:06:09.581Z,12.60
2019-01-30T10:08:49.119Z,12.60
2019-01-30T10:11:29.913Z,12.70
2019-01-30T10:14:18.871Z,12.60
2019-01-30T10:17:01.277Z,12.70
2019-01-30T10:19:41.883Z,12.70
2019-01-30T10:22:25.102Z,12.80
2019-01-30T10:25:03.443Z,12.70
2019-01-30T10:27:43.388Z,12.60
2019-01-30T10:30:27.916Z,12.60
2019-01-30T10:33:16.726Z,12.50
2019-01-30T10:36:03.350Z,12.50
2019-01-30T10:38:42.515Z,12.50
2019-01-30T10:41:20.261Z,12.50
2019-01-30T10:44:04.893Z,12.60
2019-01-30T10:46:51.359Z,12.50
2019-01-30T10:49:32.518Z,12.60
2019-01-30T10:52:10.253Z,12.50
2019-01-30T10:54:48.442Z,12.40
2019-01-30T10:57:27.544Z,12.50
2019-01-30T11:00:08.169Z,12.40
2019-01-30T11:02:48.593Z,12.60
2019-01-30T11:05:29.094Z,12.50
2019-01-30T11:08:10.116Z,12.60
2019-01-30T11:10:50.745Z,12.90
2019-01-30T11:13:30.508Z,12.90
2019-01-30T11:16:24.707Z,12.80
2019-01-30T11:19:12.363Z,12.70
2019-01-30T11:21:57.565Z,12.50
2019-01-30T11:24:39.637Z,12.60
2019-01-30T11:27:22.251Z,12.60
2019-01-30T11:30:06.263Z,12.60
2019-01-30T11:32:49.326Z,12.60
2019-01-30T11:35:33.195Z,12.70
2019-01-30T11:38:11.857Z,12.80
2019-01-30T11:40:56.709Z,12.80
2019-01-30T11:43:44.692Z,12.60
2019-01-30T11:46:23.832Z,12.60
2019-01-30T11:49:04.913Z,12.60
2019-01-30T11:51:55.911Z,12.70
2019-01-30T11:54:38.874Z,12.60
2019-01-30T11:57:20.235Z,12.50
2019-01-30T12:00:10.848Z,12.60
2019-01-30T12:03:01.974Z,12.70
2019-01-30T12:05:46.934Z,12.60
2019-01-30T12:08:29.177Z,12.70
2019-01-30T12:11:12.284Z,12.60
2019-01-30T12:13:53.399Z,12.50
2019-01-30T12:16:33.068Z,12.70
2019-01-30T12:19:14.303Z,12.70
2019-01-30T12:21:52.209Z,12.60
2019-01-30T12:24:37.912Z,12.70
2019-01-30T12:27:27.884Z,12.80
2019-01-30T12:30:16.908Z,12.90
2019-01-30T12:32:57.112Z,13.00
2019-01-30T12:35:46.908Z,13.10
2019-01-30T12:38:29.977Z,13.10
2019-01-30T12:41:13.124Z,13.00
2019-01-30T12:43:57.606Z,13.10
2019-01-30T12:46:48.128Z,13.10
2019-01-30T12:49:42.374Z,13.30
2019-01-30T12:52:51.405Z,13.30
2019-01-30T12:55:58.332Z,13.20
2019-01-30T12:58:40.548Z,13.20
2019-01-30T13:01:30.942Z,13.00
2019-01-30T13:04:38.676Z,13.00
2019-01-30T13:07:39.805Z,12.80
2019-01-30T13:10:27.101Z,12.80
2019-01-30T13:13:29.546Z,12.80
2019-01-30T13:16:16.373Z,12.70
2019-01-30T13:18:59.715Z,12.70
2019-01-30T13:21:47.052Z,12.50
2019-01-30T13:24:41.750Z,12.60
2019-01-30T13:27:44.938Z,12.60
2019-01-30T13:30:43.892Z,12.60
2019-01-30T13:33:37.151Z,12.50
2019-01-30T13:36:22.512Z,12.40
2019-01-30T13:39:07.251Z,12.40
2019-01-30T13:42:04.624Z,12.40
2019-01-30T13:44:47.050Z,12.40
2019-01-30T13:47:46.173Z,12.40
2019-01-30T13:54:02.581Z,12.30
2019-01-30T13:56:56.750Z,12.30
2019-01-30T14:04:00.336Z,12.20
2019-01-30T14:07:24.115Z,12.20
2019-01-30T14:13:30.167Z,12.40
2019-01-30T14:16:23.517Z,12.30
2019-01-30T14:19:33.560Z,12.30
2019-01-30T14:22:37.713Z,12.30
2019-01-30T14:25:37.369Z,12.30
2019-01-30T14:28:17.511Z,12.40
2019-01-30T14:31:09.503Z,12.30
2019-01-30T14:34:27.302Z,12.30
2019-01-30T14:40:33.952Z,12.20
2019-01-30T14:43:52.333Z,12.20
2019-01-30T14:46:58.877Z,12.20
2019-01-30T14:50:00.523Z,12.20
2019-01-30T14:53:15.366Z,12.10
2019-01-30T14:56:13.965Z,12.10
2019-01-30T14:59:15.598Z,12.10
2019-01-30T15:02:15.472Z,12.10
2019-01-30T15:05:21.784Z,12.00
2019-01-30T15:08:03.670Z,11.90
2019-01-30T15:11:19.919Z,11.90
2019-01-30T15:14:10.440Z,11.90
2019-01-30T15:17:16.784Z,11.90
2019-01-30T15:20:02.834Z,12.00
2019-01-30T15:23:04.917Z,12.00
2019-01-30T15:25:50.779Z,12.10
2019-01-30T15:28:47.903Z,12.00
2019-01-30T15:31:43.114Z,12.10
2019-01-30T15:34:28.488Z,12.10
2019-01-30T15:37:12.325Z,12.00
2019-01-30T15:40:13.526Z,11.90
2019-01-30T15:43:23.926Z,11.90
2019-01-30T15:46:30.484Z,11.80
2019-01-30T15:49:17.164Z,11.90
2019-01-30T15:52:07.706Z,11.80
2019-01-30T15:55:19.165Z,11.90
2019-01-30T15:58:25.158Z,11.80
2019-01-30T16:01:15.034Z,11.80
2019-01-30T16:04:05.952Z,11.80
2019-01-30T16:06:52.417Z,11.90
2019-01-30T16:09:40.354Z,11.90
2019-01-30T16:12:37.532Z,11.80
2019-01-30T16:15:38.695Z,11.80
2019-01-30T16:18:45.836Z,11.70
2019-01-30T16:21:50.941Z,11.70
2019-01-30T16:24:53.427Z,11.70
2019-01-30T16:30:50.179Z,11.80
2019-01-30T16:33:44.490Z,11.80
2019-01-30T16:36:35.578Z,11.80
2019-01-30T16:39:29.213Z,11.70
2019-01-30T16:42:18.145Z,11.80
2019-01-30T16:45:18.811Z,11.70
2019-01-30T16:48:04.062Z,11.70
2019-01-30T16:50:51.721Z,11.80
2019-01-30T16:53:42.127Z,11.70
2019-01-30T16:56:34.933Z,11.60
2019-01-30T16:59:34.211Z,11.50
2019-01-30T17:02:16.272Z,11.60
2019-01-30T17:05:03.269Z,11.60
2019-01-30T17:07:49.428Z,11.60
2019-01-30T17:10:31.441Z,11.70
2019-01-30T17:13:12.764Z,11.70
2019-01-30T17:15:56.026Z,11.70
2019-01-30T17:18:35.785Z,11.60
2019-01-30T17:21:16.723Z,11.50
2019-01-30T17:24:02.486Z,11.50
2019-01-30T17:26:42.291Z,11.60
2019-01-30T17:29:22.719Z,11.60
2019-01-30T17:31:59.186Z,11.60
2019-01-30T17:34:43.285Z,11.60
2019-01-30T17:37:25.282Z,11.50
2019-01-30T17:40:03.522Z,11.50
2019-01-30T17:42:43.180Z,11.50
2019-01-30T17:45:22.199Z,11.50
2019-01-30T17:48:02.193Z,11.50
2019-01-30T17:50:40.467Z,11.40
2019-01-30T17:53:17.790Z,11.50
2019-01-30T17:55:57.676Z,11.50
2019-01-30T17:58:37.615Z,11.40
2019-01-30T18:01:18.748Z,11.40
2019-01-30T18:03:58.117Z,11.40
2019-01-30T18:06:36.644Z,11.40
2019-01-30T18:09:17.779Z,11.40
2019-01-30T18:12:03.040Z,11.30
2019-01-30T18:14:43.653Z,11.30
2019-01-30T18:17:22.717Z,11.30
2019-01-30T18:20:02.370Z,11.30
2019-01-30T18:22:40.502Z,11.30
2019-01-30T18:25:18.900Z,11.40
2019-01-30T18:27:56.656Z,11.40
2019-01-30T18:30:34.768Z,11.40
2019-01-30T18:33:15.634Z,11.40
2019-01-30T18:35:54.965Z,11.40
2019-01-30T18:38:35.958Z,11.40
2019-01-30T18:41:13.261Z,11.40
2019-01-30T18:43:51.372Z,11.40
2019-01-30T18:46:29.275Z,11.30
2019-01-30T18:49:12.119Z,11.40
2019-01-30T18:51:54.078Z,11.30
2019-01-30T18:54:32.202Z,11.20
2019-01-30T18:57:10.069Z,11.20
2019-01-30T18:59:48.286Z,11.20
2019-01-30T19:02:26.084Z,11.20
2019-01-30T19:05:07.440Z,11.30
2019-01-30T19:07:45.550Z,11.30
2019-01-30T19:10:23.340Z,11.20
2019-01-30T19:13:05.562Z,11.20
2019-01-30T19:15:44.842Z,11.30
2019-01-30T19:18:23.859Z,11.20
2019-01-30T19:21:02.068Z,11.10
2019-01-30T19:23:41.015Z,11.20
2019-01-30T19:26:19.422Z,11.20
2019-01-30T19:28:57.935Z,11.30
2019-01-30T19:31:37.199Z,11.20
2019-01-30T19:34:16.024Z,11.20
2019-01-30T19:37:03.242Z,11.20
2019-01-30T19:39:32.426Z,11.10
2019-01-30T19:42:10.268Z,11.10
2019-01-30T19:44:47.931Z,11.10
2019-01-30T19:47:26.204Z,11.00
2019-01-30T19:50:06.512Z,11.00
2019-01-30T19:52:43.506Z,11.00
2019-01-30T19:55:21.018Z,11.00
2019-01-30T19:58:00.851Z,11.10
2019-01-30T20:00:44.627Z,11.10
2019-01-30T20:03:25.625Z,11.10
2019-01-30T20:06:04.084Z,11.00
2019-01-30T20:08:42.051Z,10.90
2019-01-30T20:11:22.411Z,10.90
2019-01-30T20:14:00.109Z,10.90
2019-01-30T20:16:39.088Z,10.90
2019-01-30T20:19:17.391Z,11.00
2019-01-30T20:21:55.104Z,11.00
2019-01-30T20:24:32.719Z,11.10
2019-01-30T20:27:10.626Z,11.10
2019-01-30T20:29:49.541Z,11.10
2019-01-30T20:32:28.141Z,11.00
2019-01-30T20:35:05.733Z,11.00
2019-01-30T20:37:45.765Z,11.10
2019-01-30T20:40:25.293Z,11.10
2019-01-30T20:43:04.623Z,11.20
2019-01-30T20:45:42.294Z,11.20
2019-01-30T20:48:20.907Z,11.20
2019-01-30T20:50:59.361Z,11.10
2019-01-30T20:53:37.453Z,11.10
2019-01-30T20:56:14.896Z,11.10
2019-01-30T20:58:53.093Z,11.10
2019-01-30T21:01:30.471Z,11.20
2019-01-30T21:04:09.602Z,11.10
2019-01-30T21:06:47.650Z,11.10
2019-01-30T21:09:25.646Z,11.10
2019-01-30T21:12:02.936Z,11.20
2019-01-30T21:14:40.885Z,11.20
2019-01-30T21:17:19.945Z,11.10
2019-01-30T21:19:58.280Z,11.20
2019-01-30T21:22:36.337Z,11.20
2019-01-30T21:25:17.767Z,11.20
2019-01-30T21:27:56.250Z,11.20
2019-01-30T21:30:36.143Z,11.20
2019-01-30T21:33:15.323Z,11.20
2019-01-30T21:35:53.758Z,11.20
2019-01-30T21:38:31.587Z,11.30
2019-01-30T21:41:10.340Z,11.20
2019-01-30T21:43:47.313Z,11.20
2019-01-30T21:46:24.805Z,11.20
2019-01-30T21:49:03.540Z,11.30
2019-01-30T21:51:42.213Z,11.20
2019-01-30T21:54:21.387Z,11.20
2019-01-30T21:56:59.381Z,11.20
2019-01-30T21:59:36.932Z,11.20
2019-01-30T22:02:14.552Z,11.20
2019-01-30T22:04:54.044Z,11.20
2019-01-30T22:07:32.027Z,11.20
2019-01-30T22:10:13.204Z,11.30
2019-01-30T22:12:55.516Z,11.30
2019-01-30T22:15:33.202Z,11.30
2019-01-30T22:18:11.721Z,11.30
2019-01-30T22:20:50.150Z,11.30
2019-01-30T22:23:28.330Z,11.20
2019-01-30T22:26:06.557Z,11.20
2019-01-30T22:28:44.594Z,11.20
2019-01-30T22:31:22.266Z,11.20
2019-01-30T22:34:01.174Z,11.20
2019-01-30T22:36:39.592Z,11.30
2019-01-30T22:39:20.101Z,11.20
2019-01-30T22:41:58.180Z,11.20
2019-01-30T22:44:36.447Z,11.20
2019-01-30T22:47:14.371Z,11.30
2019-01-30T22:49:52.373Z,11.20
2019-01-30T22:52:30.090Z,11.20
2019-01-30T22:55:08.373Z,11.30
2019-01-30T22:57:46.098Z,11.30
2019-01-30T23:01:05.608Z,11.30
2019-01-30T23:04:10.105Z,11.30
2019-01-30T23:06:59.876Z,11.30
2019-01-30T23:10:15.686Z,11.30
2019-01-30T23:13:26.988Z,11.30
2019-01-30T23:16:24.559Z,11.20
2019-01-30T23:19:25.112Z,11.20
2019-01-30T23:22:19.962Z,11.30
2019-01-30T23:25:33.029Z,11.40
2019-01-30T23:28:49.054Z,11.50
2019-01-30T23:31:47.253Z,11.60
2019-01-30T23:35:20.612Z,11.60
2019-01-30T23:38:40.534Z,11.60
2019-01-30T23:41:51.271Z,11.60
2019-01-30T23:44:59.740Z,11.60
2019-01-30T23:48:14.743Z,11.80
2019-01-30T23:51:19.245Z,11.90
2019-01-30T23:54:39.024Z,12.00
2019-01-30T23:57:54.450Z,12.00
